createdAt,value
2023-10-28T00:00:11.658Z,7.68
2023-10-28T00:00:23.165Z,7.57
2023-10-28T00:00:34.626Z,6.85
2023-10-28T00:00:46.803Z,5.95
2023-10-28T00:00:58.618Z,5.80
2023-10-28T00:01:10.020Z,4.70
2023-10-28T00:01:21.563Z,4.82
2023-10-28T00:01:33.676Z,4.55
2023-10-28T00:01:45.582Z,6.10
2023-10-28T00:01:57.356Z,9.65
2023-10-28T00:02:08.966Z,9.70
2023-10-28T00:02:20.446Z,8.20
2023-10-28T00:02:31.962Z,4.63
2023-10-28T00:02:43.891Z,4.80
2023-10-28T00:02:55.424Z,4.30
2023-10-28T00:03:06.947Z,3.50
2023-10-28T00:03:18.805Z,3.65
2023-10-28T00:03:30.619Z,2.83
2023-10-28T00:03:42.203Z,3.13
2023-10-28T00:03:53.641Z,3.25
2023-10-28T00:04:05.528Z,2.78
2023-10-28T00:04:17.049Z,3.55
2023-10-28T00:04:28.518Z,3.90
2023-10-28T00:04:40.301Z,3.13
2023-10-28T00:04:51.889Z,3.42
2023-10-28T00:05:03.376Z,3.80
2023-10-28T00:05:15.003Z,7.80
2023-10-28T00:05:26.531Z,7.30
2023-10-28T00:05:38.358Z,6.63
2023-10-28T00:05:49.881Z,5.35
2023-10-28T00:06:01.482Z,7.05
2023-10-28T00:06:12.986Z,5.97
2023-10-28T00:06:24.379Z,5.25
2023-10-28T00:06:35.831Z,3.15
2023-10-28T00:06:47.249Z,2.80
2023-10-28T00:06:58.634Z,3.53
2023-10-28T00:07:10.085Z,3.47
2023-10-28T00:07:24.722Z,3.53
2023-10-28T00:07:36.205Z,3.95
2023-10-28T00:07:47.634Z,4.28
2023-10-28T00:07:59.193Z,3.03
2023-10-28T00:08:11.046Z,2.65
2023-10-28T00:08:22.708Z,2.95
2023-10-28T00:08:37.101Z,4.22
2023-10-28T00:08:48.752Z,3.92
2023-10-28T00:09:00.145Z,3.80
2023-10-28T00:09:11.638Z,3.42
2023-10-28T00:09:23.539Z,4.00
2023-10-28T00:09:35.086Z,6.22
2023-10-28T00:09:46.673Z,6.55
2023-10-28T00:09:58.260Z,6.18
2023-10-28T00:10:10.164Z,4.95
2023-10-28T00:10:22.238Z,4.35
2023-10-28T00:10:33.746Z,4.22
2023-10-28T00:10:45.443Z,5.20
2023-10-28T00:10:56.981Z,5.18
2023-10-28T00:11:08.537Z,5.07
2023-10-28T00:11:20.050Z,3.25
2023-10-28T00:11:31.539Z,3.40
2023-10-28T00:11:43.145Z,3.38
2023-10-28T00:11:54.530Z,3.63
2023-10-28T00:12:06.068Z,4.20
2023-10-28T00:12:17.515Z,4.10
2023-10-28T00:12:32.371Z,3.17
2023-10-28T00:12:43.746Z,3.20
2023-10-28T00:12:55.134Z,3.60
2023-10-28T00:13:06.589Z,4.20
2023-10-28T00:13:18.032Z,3.60
2023-10-28T00:13:38.554Z,4.22
2023-10-28T00:13:50.387Z,4.68
2023-10-28T00:14:02.234Z,4.90
2023-10-28T00:14:13.699Z,4.07
2023-10-28T00:14:25.332Z,4.85
2023-10-28T00:14:36.768Z,4.72
2023-10-28T00:14:48.335Z,3.88
2023-10-28T00:15:03.326Z,3.40
2023-10-28T00:15:14.797Z,2.00
2023-10-28T00:15:27.017Z,2.35
2023-10-28T00:15:39.043Z,2.70
2023-10-28T00:15:50.509Z,3.15
2023-10-28T00:16:02.203Z,3.50
2023-10-28T00:16:13.816Z,3.58
2023-10-28T00:16:25.411Z,3.95
2023-10-28T00:16:36.892Z,3.88
2023-10-28T00:16:48.392Z,4.13
2023-10-28T00:16:59.850Z,3.90
2023-10-28T00:17:11.342Z,4.25
2023-10-28T00:17:22.824Z,3.65
2023-10-28T00:17:34.258Z,3.13
2023-10-28T00:17:46.822Z,2.80
2023-10-28T00:17:58.230Z,4.00
2023-10-28T00:18:09.696Z,3.63
2023-10-28T00:18:21.223Z,5.50
2023-10-28T00:18:32.652Z,6.18
2023-10-28T00:18:44.288Z,5.45
2023-10-28T00:18:55.651Z,3.67
2023-10-28T00:19:07.057Z,2.90
2023-10-28T00:19:26.044Z,3.00
2023-10-28T00:19:37.725Z,3.15
2023-10-28T00:19:49.148Z,3.42
2023-10-28T00:20:00.701Z,3.00
2023-10-28T00:20:12.154Z,3.78
2023-10-28T00:20:23.677Z,5.22
2023-10-28T00:20:35.327Z,5.43
2023-10-28T00:20:46.756Z,3.80
2023-10-28T00:20:58.183Z,2.60
2023-10-28T00:21:09.864Z,3.67
2023-10-28T00:21:21.369Z,4.57
2023-10-28T00:21:32.799Z,4.60
2023-10-28T00:21:44.197Z,2.85
2023-10-28T00:21:55.579Z,4.22
2023-10-28T00:22:07.005Z,3.75
2023-10-28T00:22:18.457Z,3.72
2023-10-28T00:22:29.864Z,4.55
2023-10-28T00:22:41.294Z,4.95
2023-10-28T00:22:52.754Z,5.18
2023-10-28T00:23:04.551Z,4.80
2023-10-28T00:23:16.093Z,4.90
2023-10-28T00:23:27.541Z,3.88
2023-10-28T00:23:38.924Z,4.07
2023-10-28T00:23:50.407Z,4.55
2023-10-28T00:24:01.850Z,4.10
2023-10-28T00:24:13.256Z,3.10
2023-10-28T00:24:24.768Z,2.10
2023-10-28T00:24:36.239Z,2.45
2023-10-28T00:24:48.094Z,2.92
2023-10-28T00:24:59.514Z,2.33
2023-10-28T00:25:10.904Z,2.45
2023-10-28T00:25:22.526Z,2.15
2023-10-28T00:25:34.078Z,4.03
2023-10-28T00:25:45.575Z,3.92
2023-10-28T00:26:04.861Z,4.85
2023-10-28T00:26:16.324Z,3.92
2023-10-28T00:26:27.978Z,3.42
2023-10-28T00:26:39.419Z,3.50
2023-10-28T00:26:50.798Z,4.35
2023-10-28T00:27:02.241Z,5.20
2023-10-28T00:27:13.631Z,5.55
2023-10-28T00:27:25.835Z,4.55
2023-10-28T00:27:37.295Z,3.83
2023-10-28T00:27:49.581Z,4.35
2023-10-28T00:28:03.268Z,4.20
2023-10-28T00:28:14.715Z,2.92
2023-10-28T00:28:26.189Z,2.20
2023-10-28T00:28:38.201Z,2.50
2023-10-28T00:28:50.152Z,3.10
2023-10-28T00:29:02.250Z,3.13
2023-10-28T00:29:13.685Z,3.22
2023-10-28T00:29:25.338Z,3.88
2023-10-28T00:29:36.878Z,3.55
2023-10-28T00:29:48.585Z,5.90
2023-10-28T00:30:00.361Z,7.90
2023-10-28T00:30:12.618Z,7.90
2023-10-28T00:30:24.632Z,4.25
2023-10-28T00:30:40.029Z,4.43
2023-10-28T00:30:51.462Z,3.90
2023-10-28T00:31:04.325Z,5.10
2023-10-28T00:31:18.786Z,7.32
2023-10-28T00:31:30.769Z,5.63
2023-10-28T00:31:42.302Z,5.68
2023-10-28T00:31:53.895Z,7.75
2023-10-28T00:32:05.991Z,8.25
2023-10-28T00:32:17.506Z,5.25
2023-10-28T00:32:28.960Z,4.85
2023-10-28T00:32:41.135Z,3.33
2023-10-28T00:32:53.669Z,3.03
2023-10-28T00:33:05.195Z,9.00
2023-10-28T00:33:16.645Z,8.73
2023-10-28T00:33:28.483Z,4.82
2023-10-28T00:33:39.976Z,3.88
2023-10-28T00:33:51.429Z,3.90
2023-10-28T00:34:02.894Z,3.08
2023-10-28T00:34:14.367Z,3.53
2023-10-28T00:34:25.820Z,3.47
2023-10-28T00:34:37.456Z,3.47
2023-10-28T00:34:49.008Z,4.35
2023-10-28T00:35:01.002Z,5.95
2023-10-28T00:35:12.584Z,6.20
2023-10-28T00:35:24.130Z,5.25
2023-10-28T00:35:37.604Z,4.43
2023-10-28T00:35:49.138Z,4.95
2023-10-28T00:36:00.518Z,5.45
2023-10-28T00:36:12.049Z,4.97
2023-10-28T00:36:23.773Z,2.67
2023-10-28T00:36:35.228Z,2.10
2023-10-28T00:36:49.748Z,3.55
2023-10-28T00:37:01.283Z,4.63
2023-10-28T00:37:13.162Z,3.47
2023-10-28T00:37:24.957Z,2.88
2023-10-28T00:37:36.498Z,2.55
2023-10-28T00:37:48.278Z,2.92
2023-10-28T00:37:59.837Z,5.18
2023-10-28T00:38:11.308Z,6.03
2023-10-28T00:38:23.907Z,6.80
2023-10-28T00:38:35.368Z,5.38
2023-10-28T00:38:47.087Z,3.90
2023-10-28T00:38:58.586Z,3.65
2023-10-28T00:39:10.015Z,3.78
2023-10-28T00:39:21.420Z,4.13
2023-10-28T00:39:32.792Z,3.23
2023-10-28T00:39:44.436Z,3.55
2023-10-28T00:39:56.015Z,3.75
2023-10-28T00:40:08.145Z,3.65
2023-10-28T00:40:19.688Z,3.75
2023-10-28T00:40:31.117Z,4.30
2023-10-28T00:40:43.326Z,3.95
2023-10-28T00:40:54.832Z,4.38
2023-10-28T00:41:06.505Z,3.25
2023-10-28T00:41:18.075Z,2.75
2023-10-28T00:41:29.473Z,2.70
2023-10-28T00:41:40.973Z,4.10
2023-10-28T00:41:52.410Z,4.90
2023-10-28T00:42:04.135Z,4.10
2023-10-28T00:42:15.545Z,4.35
2023-10-28T00:42:27.510Z,5.00
2023-10-28T00:42:38.988Z,4.80
2023-10-28T00:42:50.465Z,4.78
2023-10-28T00:43:02.348Z,5.35
2023-10-28T00:43:14.109Z,4.55
2023-10-28T00:43:25.505Z,2.22
2023-10-28T00:43:36.978Z,2.83
2023-10-28T00:43:48.391Z,3.22
2023-10-28T00:43:59.928Z,4.38
2023-10-28T00:44:11.488Z,4.50
2023-10-28T00:44:23.214Z,5.60
2023-10-28T00:44:34.637Z,5.13
2023-10-28T00:44:46.011Z,3.85
2023-10-28T00:44:57.486Z,4.22
2023-10-28T00:45:10.351Z,3.85
2023-10-28T00:45:22.146Z,3.15
2023-10-28T00:45:33.639Z,2.30
2023-10-28T00:45:45.094Z,2.95
2023-10-28T00:45:56.737Z,4.13
2023-10-28T00:46:08.728Z,4.78
2023-10-28T00:46:20.296Z,4.60
2023-10-28T00:46:32.486Z,3.50
2023-10-28T00:46:44.763Z,2.80
2023-10-28T00:46:56.388Z,2.30
2023-10-28T00:47:07.912Z,2.63
2023-10-28T00:47:19.382Z,2.03
2023-10-28T00:47:30.938Z,3.00
2023-10-28T00:47:44.996Z,3.60
2023-10-28T00:47:56.899Z,4.70
2023-10-28T00:48:08.685Z,5.40
2023-10-28T00:48:20.125Z,3.42
2023-10-28T00:48:31.917Z,2.90
2023-10-28T00:48:45.995Z,2.33
2023-10-28T00:48:57.530Z,4.20
2023-10-28T00:49:09.603Z,4.22
2023-10-28T00:49:21.582Z,4.50
2023-10-28T00:49:33.119Z,3.58
2023-10-28T00:49:47.031Z,4.43
2023-10-28T00:49:58.736Z,4.78
2023-10-28T00:50:12.021Z,5.20
2023-10-28T00:50:23.656Z,5.57
2023-10-28T00:50:35.164Z,4.53
2023-10-28T00:50:46.612Z,3.65
2023-10-28T00:50:58.409Z,3.25
2023-10-28T00:51:09.895Z,1.80
2023-10-28T00:51:21.416Z,4.05
2023-10-28T00:51:33.459Z,5.40
2023-10-28T00:51:45.597Z,4.57
2023-10-28T00:51:57.412Z,2.15
2023-10-28T00:52:09.083Z,2.97
2023-10-28T00:52:20.773Z,3.03
2023-10-28T00:52:32.230Z,2.92
2023-10-28T00:52:53.270Z,2.10
2023-10-28T00:53:05.014Z,2.60
2023-10-28T00:53:16.943Z,3.28
2023-10-28T00:53:28.502Z,2.92
2023-10-28T00:53:40.614Z,3.58
2023-10-28T00:53:52.576Z,2.88
2023-10-28T00:54:04.095Z,3.13
2023-10-28T00:54:15.616Z,3.90
2023-10-28T00:54:27.894Z,3.05
2023-10-28T00:54:39.739Z,4.05
2023-10-28T00:54:51.759Z,5.13
2023-10-28T00:55:04.031Z,4.30
2023-10-28T00:55:16.816Z,3.28
2023-10-28T00:55:29.696Z,3.50
2023-10-28T00:55:41.438Z,4.25
2023-10-28T00:55:53.022Z,3.65
2023-10-28T00:56:05.052Z,2.85
2023-10-28T00:56:16.654Z,2.95
2023-10-28T00:56:28.200Z,3.63
2023-10-28T00:56:39.852Z,3.95
2023-10-28T00:56:51.788Z,3.47
2023-10-28T00:57:03.670Z,3.25
2023-10-28T00:57:18.631Z,2.95
2023-10-28T00:57:32.431Z,3.28
2023-10-28T00:57:45.116Z,2.80
2023-10-28T00:57:56.654Z,2.72
2023-10-28T00:58:10.846Z,3.30
2023-10-28T00:58:23.335Z,3.13
2023-10-28T00:58:35.880Z,3.13
2023-10-28T00:58:47.566Z,4.30
2023-10-28T00:58:59.436Z,5.47
2023-10-28T00:59:11.589Z,5.28
2023-10-28T00:59:23.123Z,3.58
2023-10-28T00:59:35.009Z,4.20
2023-10-28T00:59:46.557Z,4.10
2023-10-28T01:00:00.335Z,3.80
2023-10-28T01:00:13.271Z,4.90
2023-10-28T01:00:24.814Z,5.28
2023-10-28T01:00:36.258Z,3.13
2023-10-28T01:00:49.677Z,2.92
2023-10-28T01:01:01.657Z,2.78
2023-10-28T01:01:13.180Z,3.85
2023-10-28T01:01:24.690Z,4.68
2023-10-28T01:01:36.283Z,4.72
2023-10-28T01:01:48.040Z,5.90
2023-10-28T01:01:59.557Z,5.88
2023-10-28T01:02:11.151Z,7.40
2023-10-28T01:02:22.767Z,4.15
2023-10-28T01:02:39.749Z,2.63
2023-10-28T01:02:51.341Z,2.08
2023-10-28T01:03:02.981Z,2.63
2023-10-28T01:03:14.531Z,3.40
2023-10-28T01:03:26.250Z,3.70
2023-10-28T01:03:37.874Z,2.95
2023-10-28T01:03:49.376Z,2.75
2023-10-28T01:04:00.840Z,3.13
2023-10-28T01:04:12.480Z,2.95
2023-10-28T01:04:23.952Z,3.47
2023-10-28T01:04:35.544Z,3.78
2023-10-28T01:04:47.135Z,3.72
2023-10-28T01:04:58.652Z,3.63
2023-10-28T01:05:11.740Z,3.30
2023-10-28T01:05:23.498Z,2.80
2023-10-28T01:05:35.019Z,2.50
2023-10-28T01:05:46.999Z,3.20
2023-10-28T01:05:59.025Z,4.05
2023-10-28T01:06:10.877Z,3.85
2023-10-28T01:06:22.992Z,3.75
2023-10-28T01:06:34.658Z,2.42
2023-10-28T01:06:47.094Z,2.90
2023-10-28T01:06:58.533Z,3.50
2023-10-28T01:07:10.380Z,4.55
2023-10-28T01:07:22.227Z,4.85
2023-10-28T01:07:34.224Z,4.78
2023-10-28T01:07:47.474Z,3.80
2023-10-28T01:07:58.962Z,4.10
2023-10-28T01:08:10.593Z,3.55
2023-10-28T01:08:22.108Z,4.72
2023-10-28T01:08:33.590Z,4.10
2023-10-28T01:08:45.149Z,4.50
2023-10-28T01:08:56.638Z,5.38
2023-10-28T01:09:08.134Z,6.13
2023-10-28T01:09:19.594Z,8.63
2023-10-28T01:09:31.094Z,6.45
2023-10-28T01:09:48.846Z,5.35
2023-10-28T01:10:00.290Z,2.78
2023-10-28T01:10:12.298Z,2.88
2023-10-28T01:10:33.916Z,2.85
2023-10-28T01:10:45.367Z,3.25
2023-10-28T01:11:01.977Z,4.05
2023-10-28T01:11:13.443Z,4.00
2023-10-28T01:11:24.868Z,3.13
2023-10-28T01:11:39.731Z,3.55
2023-10-28T01:11:51.150Z,4.15
2023-10-28T01:12:02.730Z,5.13
2023-10-28T01:12:14.564Z,5.63
2023-10-28T01:12:26.054Z,4.90
2023-10-28T01:12:37.773Z,4.07
2023-10-28T01:12:49.159Z,3.17
2023-10-28T01:13:00.736Z,4.60
2023-10-28T01:13:12.140Z,5.55
2023-10-28T01:13:23.533Z,6.07
2023-10-28T01:13:35.229Z,4.85
2023-10-28T01:13:46.691Z,3.80
2023-10-28T01:13:58.188Z,3.03
2023-10-28T01:14:09.675Z,2.35
2023-10-28T01:14:21.820Z,2.83
2023-10-28T01:14:33.343Z,3.63
2023-10-28T01:14:44.843Z,3.88
2023-10-28T01:14:56.627Z,3.90
2023-10-28T01:15:08.404Z,4.28
2023-10-28T01:15:20.259Z,3.53
2023-10-28T01:15:31.803Z,2.33
2023-10-28T01:15:43.365Z,3.35
2023-10-28T01:15:55.200Z,4.07
2023-10-28T01:16:06.918Z,4.65
2023-10-28T01:16:18.399Z,5.18
2023-10-28T01:16:29.886Z,6.25
2023-10-28T01:16:41.347Z,5.40
2023-10-28T01:16:52.867Z,4.53
2023-10-28T01:17:04.460Z,3.15
2023-10-28T01:17:15.974Z,3.45
2023-10-28T01:17:27.485Z,3.22
2023-10-28T01:17:39.025Z,3.08
2023-10-28T01:17:50.941Z,3.45
2023-10-28T01:18:03.616Z,3.35
2023-10-28T01:18:15.141Z,2.92
2023-10-28T01:18:26.803Z,2.83
2023-10-28T01:18:38.375Z,3.10
2023-10-28T01:18:55.354Z,3.15
2023-10-28T01:19:06.960Z,3.60
2023-10-28T01:19:18.435Z,4.05
2023-10-28T01:19:29.887Z,3.10
2023-10-28T01:19:41.337Z,3.40
2023-10-28T01:19:53.470Z,2.55
2023-10-28T01:20:05.556Z,2.28
2023-10-28T01:20:18.502Z,2.45
2023-10-28T01:20:29.911Z,3.85
2023-10-28T01:20:41.415Z,3.50
2023-10-28T01:20:52.891Z,3.08
2023-10-28T01:21:12.163Z,3.10
2023-10-28T01:21:23.650Z,3.95
2023-10-28T01:21:35.061Z,4.00
2023-10-28T01:21:46.506Z,5.15
2023-10-28T01:21:57.955Z,3.72
2023-10-28T01:22:09.696Z,4.60
2023-10-28T01:22:21.599Z,4.47
2023-10-28T01:22:32.982Z,5.22
2023-10-28T01:22:44.750Z,4.93
2023-10-28T01:22:56.181Z,4.47
2023-10-28T01:23:07.987Z,3.33
2023-10-28T01:23:19.476Z,2.85
2023-10-28T01:23:37.141Z,3.35
2023-10-28T01:23:48.595Z,4.40
2023-10-28T01:24:00.040Z,5.97
2023-10-28T01:24:11.559Z,7.43
2023-10-28T01:24:22.949Z,4.40
2023-10-28T01:24:34.558Z,3.20
2023-10-28T01:24:45.985Z,4.35
2023-10-28T01:24:57.389Z,4.72
2023-10-28T01:25:09.772Z,4.40
2023-10-28T01:25:21.231Z,3.90
2023-10-28T01:25:32.735Z,4.20
2023-10-28T01:25:44.292Z,4.15
2023-10-28T01:25:55.852Z,3.60
2023-10-28T01:26:07.348Z,4.65
2023-10-28T01:26:18.847Z,4.47
2023-10-28T01:26:30.444Z,3.50
2023-10-28T01:26:41.811Z,2.70
2023-10-28T01:26:53.259Z,3.90
2023-10-28T01:27:04.750Z,5.18
2023-10-28T01:27:16.865Z,4.57
2023-10-28T01:27:28.273Z,4.78
2023-10-28T01:27:39.732Z,4.22
2023-10-28T01:27:51.195Z,7.07
2023-10-28T01:28:02.732Z,6.20
2023-10-28T01:28:14.308Z,5.82
2023-10-28T01:28:25.821Z,3.30
2023-10-28T01:28:37.286Z,2.85
2023-10-28T01:28:48.778Z,2.42
2023-10-28T01:29:00.353Z,3.50
2023-10-28T01:29:11.814Z,4.85
2023-10-28T01:29:23.356Z,4.63
2023-10-28T01:29:34.745Z,4.57
2023-10-28T01:29:49.218Z,5.63
2023-10-28T01:30:04.300Z,5.72
2023-10-28T01:30:15.893Z,4.30
2023-10-28T01:30:27.596Z,3.72
2023-10-28T01:30:39.005Z,5.88
2023-10-28T01:30:50.453Z,6.28
2023-10-28T01:31:02.002Z,6.68
2023-10-28T01:31:13.575Z,6.03
2023-10-28T01:31:25.039Z,4.13
2023-10-28T01:31:36.619Z,5.15
2023-10-28T01:31:48.165Z,5.90
2023-10-28T01:31:59.741Z,5.03
2023-10-28T01:32:16.759Z,3.88
2023-10-28T01:32:28.239Z,4.63
2023-10-28T01:32:41.058Z,3.55
2023-10-28T01:32:52.561Z,3.17
2023-10-28T01:33:04.131Z,4.30
2023-10-28T01:33:15.712Z,4.40
2023-10-28T01:33:27.137Z,4.47
2023-10-28T01:33:38.537Z,4.22
2023-10-28T01:33:50.044Z,3.53
2023-10-28T01:34:01.492Z,3.35
2023-10-28T01:34:12.888Z,3.17
2023-10-28T01:34:24.407Z,3.08
2023-10-28T01:34:55.108Z,3.50
2023-10-28T01:35:07.219Z,2.10
2023-10-28T01:35:19.306Z,1.67
2023-10-28T01:35:33.788Z,2.88
2023-10-28T01:35:45.232Z,3.28
2023-10-28T01:35:56.981Z,2.70
2023-10-28T01:36:08.694Z,3.45
2023-10-28T01:36:20.556Z,3.90
2023-10-28T01:36:32.102Z,4.13
2023-10-28T01:36:43.527Z,2.97
2023-10-28T01:36:56.999Z,3.45
2023-10-28T01:37:08.398Z,5.93
2023-10-28T01:37:20.734Z,5.10
2023-10-28T01:37:32.208Z,3.75
2023-10-28T01:37:44.165Z,3.30
2023-10-28T01:37:55.996Z,3.88
2023-10-28T01:38:07.440Z,3.38
2023-10-28T01:38:18.867Z,2.92
2023-10-28T01:38:30.405Z,2.95
2023-10-28T01:38:41.813Z,3.70
2023-10-28T01:38:53.247Z,4.05
2023-10-28T01:39:04.948Z,4.60
2023-10-28T01:39:16.412Z,4.47
2023-10-28T01:39:27.927Z,5.10
2023-10-28T01:39:39.493Z,5.00
2023-10-28T01:39:52.534Z,3.97
2023-10-28T01:40:04.437Z,4.75
2023-10-28T01:40:16.495Z,6.05
2023-10-28T01:40:28.179Z,6.57
2023-10-28T01:40:39.941Z,4.45
2023-10-28T01:40:51.531Z,5.43
2023-10-28T01:41:03.478Z,5.93
2023-10-28T01:41:14.914Z,4.70
2023-10-28T01:41:26.373Z,4.95
2023-10-28T01:41:37.833Z,5.35
2023-10-28T01:41:49.370Z,5.20
2023-10-28T01:42:01.091Z,3.60
2023-10-28T01:42:12.657Z,2.67
2023-10-28T01:42:24.127Z,3.28
2023-10-28T01:42:35.504Z,4.65
2023-10-28T01:42:47.464Z,5.93
2023-10-28T01:42:59.036Z,5.32
2023-10-28T01:43:11.569Z,4.55
2023-10-28T01:43:23.012Z,3.95
2023-10-28T01:43:34.388Z,3.03
2023-10-28T01:43:45.967Z,3.13
2023-10-28T01:43:57.767Z,3.72
2023-10-28T01:44:09.756Z,4.53
2023-10-28T01:44:21.266Z,4.75
2023-10-28T01:44:32.770Z,5.00
2023-10-28T01:44:45.015Z,5.00
2023-10-28T01:44:56.398Z,3.30
2023-10-28T01:45:09.606Z,3.20
2023-10-28T01:45:21.034Z,4.10
2023-10-28T01:45:32.557Z,5.07
2023-10-28T01:45:44.166Z,3.70
2023-10-28T01:45:55.842Z,3.10
2023-10-28T01:46:07.404Z,4.70
2023-10-28T01:46:18.938Z,4.70
2023-10-28T01:46:30.369Z,4.70
2023-10-28T01:46:41.911Z,3.08
2023-10-28T01:46:53.459Z,3.15
2023-10-28T01:47:05.022Z,4.97
2023-10-28T01:47:16.957Z,5.75
2023-10-28T01:47:28.562Z,4.88
2023-10-28T01:47:40.870Z,4.25
2023-10-28T01:47:52.353Z,3.95
2023-10-28T01:48:04.084Z,3.97
2023-10-28T01:48:15.723Z,3.63
2023-10-28T01:48:27.199Z,3.20
2023-10-28T01:48:38.773Z,2.80
2023-10-28T01:48:50.164Z,2.25
2023-10-28T01:49:01.595Z,3.40
2023-10-28T01:49:13.043Z,3.42
2023-10-28T01:49:24.416Z,4.82
2023-10-28T01:49:36.898Z,4.70
2023-10-28T01:49:48.518Z,4.65
2023-10-28T01:50:00.275Z,4.60
2023-10-28T01:50:12.950Z,4.60
2023-10-28T01:50:24.835Z,4.07
2023-10-28T01:50:36.305Z,6.35
2023-10-28T01:50:47.787Z,5.15
2023-10-28T01:50:59.299Z,5.55
2023-10-28T01:51:10.749Z,4.40
2023-10-28T01:51:22.123Z,4.30
2023-10-28T01:51:33.568Z,3.67
2023-10-28T01:51:45.105Z,3.15
2023-10-28T01:51:56.525Z,3.55
2023-10-28T01:52:08.031Z,3.22
2023-10-28T01:52:19.434Z,4.05
2023-10-28T01:52:30.922Z,4.20
2023-10-28T01:52:43.237Z,5.40
2023-10-28T01:52:54.966Z,4.32
2023-10-28T01:53:07.018Z,3.08
2023-10-28T01:53:18.478Z,4.63
2023-10-28T01:53:29.851Z,4.32
2023-10-28T01:53:41.301Z,4.13
2023-10-28T01:53:52.766Z,3.60
2023-10-28T01:54:04.513Z,3.70
2023-10-28T01:54:15.919Z,2.70
2023-10-28T01:54:27.439Z,2.63
2023-10-28T01:54:39.000Z,2.58
2023-10-28T01:54:50.470Z,4.07
2023-10-28T01:55:02.552Z,4.95
2023-10-28T01:55:14.052Z,4.25
2023-10-28T01:55:25.623Z,5.40
2023-10-28T01:55:37.115Z,5.28
2023-10-28T01:55:48.605Z,6.90
2023-10-28T01:56:00.220Z,5.93
2023-10-28T01:56:14.730Z,5.15
2023-10-28T01:56:26.182Z,4.80
2023-10-28T01:56:37.565Z,5.20
2023-10-28T01:56:48.995Z,5.18
2023-10-28T01:57:01.964Z,3.88
2023-10-28T01:57:15.321Z,4.47
2023-10-28T01:57:26.747Z,3.95
2023-10-28T01:57:38.459Z,3.72
2023-10-28T01:57:49.976Z,2.97
2023-10-28T01:58:01.570Z,4.03
2023-10-28T01:58:12.944Z,4.40
2023-10-28T01:58:24.508Z,4.60
2023-10-28T01:58:35.893Z,3.97
2023-10-28T01:58:47.414Z,3.30
2023-10-28T01:58:58.877Z,3.08
2023-10-28T01:59:10.407Z,3.50
2023-10-28T01:59:21.998Z,3.03
2023-10-28T01:59:37.513Z,3.53
2023-10-28T01:59:48.971Z,3.47
2023-10-28T02:00:01.380Z,3.67
2023-10-28T02:00:13.192Z,3.63
2023-10-28T02:00:24.804Z,3.00
2023-10-28T02:00:36.264Z,3.72
2023-10-28T02:00:47.727Z,5.20
2023-10-28T02:00:59.628Z,5.40
2023-10-28T02:01:11.173Z,3.90
2023-10-28T02:01:22.763Z,4.80
2023-10-28T02:01:37.800Z,3.97
2023-10-28T02:01:49.288Z,4.53
2023-10-28T02:02:01.644Z,5.57
2023-10-28T02:02:13.215Z,5.35
2023-10-28T02:02:24.730Z,3.30
2023-10-28T02:02:36.259Z,3.15
2023-10-28T02:02:47.817Z,3.00
2023-10-28T02:02:59.936Z,2.97
2023-10-28T02:03:11.564Z,3.28
2023-10-28T02:03:23.165Z,3.53
2023-10-28T02:03:34.684Z,4.20
2023-10-28T02:03:46.217Z,4.88
2023-10-28T02:03:57.643Z,5.22
2023-10-28T02:04:09.100Z,4.80
2023-10-28T02:04:20.542Z,6.05
2023-10-28T02:04:32.869Z,6.32
2023-10-28T02:04:44.311Z,7.18
2023-10-28T02:04:55.769Z,6.20
2023-10-28T02:05:07.594Z,5.40
2023-10-28T02:05:19.416Z,4.75
2023-10-28T02:05:30.858Z,5.03
2023-10-28T02:05:42.457Z,3.63
2023-10-28T02:05:53.968Z,3.60
2023-10-28T02:06:06.823Z,4.22
2023-10-28T02:06:18.442Z,3.22
2023-10-28T02:06:30.132Z,2.72
2023-10-28T02:06:41.532Z,5.32
2023-10-28T02:06:53.056Z,5.03
2023-10-28T02:07:04.866Z,4.38
2023-10-28T02:07:16.227Z,3.22
2023-10-28T02:07:27.710Z,4.63
2023-10-28T02:07:39.416Z,5.32
2023-10-28T02:07:50.929Z,4.55
2023-10-28T02:08:02.407Z,4.82
2023-10-28T02:08:14.057Z,3.50
2023-10-28T02:08:25.451Z,2.90
2023-10-28T02:08:36.893Z,3.00
2023-10-28T02:08:48.354Z,3.40
2023-10-28T02:08:59.815Z,3.67
2023-10-28T02:09:14.386Z,4.68
2023-10-28T02:09:26.187Z,4.82
2023-10-28T02:09:37.615Z,4.93
2023-10-28T02:09:49.002Z,5.10
2023-10-28T02:10:00.360Z,4.75
2023-10-28T02:10:11.930Z,4.40
2023-10-28T02:10:23.433Z,4.05
2023-10-28T02:10:35.364Z,4.45
2023-10-28T02:10:46.778Z,5.25
2023-10-28T02:10:58.363Z,5.03
2023-10-28T02:11:10.251Z,5.13
2023-10-28T02:11:24.697Z,4.87
2023-10-28T02:11:36.328Z,5.13
2023-10-28T02:11:47.822Z,5.95
2023-10-28T02:11:59.271Z,6.20
2023-10-28T02:12:10.748Z,5.40
2023-10-28T02:12:22.288Z,3.70
2023-10-28T02:12:33.906Z,4.00
2023-10-28T02:12:45.315Z,5.57
2023-10-28T02:12:56.827Z,6.40
2023-10-28T02:13:08.291Z,4.75
2023-10-28T02:13:19.816Z,3.70
2023-10-28T02:13:32.457Z,3.05
2023-10-28T02:13:43.934Z,3.05
2023-10-28T02:13:55.468Z,3.05
2023-10-28T02:14:07.327Z,4.20
2023-10-28T02:14:19.374Z,6.07
2023-10-28T02:14:30.845Z,6.10
2023-10-28T02:14:42.227Z,5.15
2023-10-28T02:14:53.592Z,4.88
2023-10-28T02:15:09.645Z,6.45
2023-10-28T02:15:21.073Z,5.13
2023-10-28T02:15:32.577Z,3.70
2023-10-28T02:15:44.299Z,3.75
2023-10-28T02:15:55.854Z,3.85
2023-10-28T02:16:07.364Z,4.18
2023-10-28T02:16:18.840Z,5.55
2023-10-28T02:16:30.337Z,6.10
2023-10-28T02:16:41.869Z,4.63
2023-10-28T02:16:53.494Z,3.92
2023-10-28T02:17:05.457Z,3.38
2023-10-28T02:17:16.962Z,3.40
2023-10-28T02:17:28.498Z,3.45
2023-10-28T02:17:40.098Z,3.10
2023-10-28T02:17:51.686Z,2.20
2023-10-28T02:18:03.219Z,2.40
2023-10-28T02:18:14.755Z,3.10
2023-10-28T02:18:26.193Z,3.88
2023-10-28T02:18:37.639Z,4.45
2023-10-28T02:18:49.026Z,4.10
2023-10-28T02:19:00.874Z,3.78
2023-10-28T02:19:12.371Z,2.63
2023-10-28T02:19:23.900Z,2.35
2023-10-28T02:19:35.349Z,2.60
2023-10-28T02:19:47.027Z,2.67
2023-10-28T02:19:58.525Z,1.70
2023-10-28T02:20:10.452Z,1.60
2023-10-28T02:20:22.000Z,2.08
2023-10-28T02:20:33.513Z,4.13
2023-10-28T02:20:48.196Z,4.20
2023-10-28T02:20:59.654Z,2.80
2023-10-28T02:21:11.302Z,2.50
2023-10-28T02:21:23.002Z,2.88
2023-10-28T02:21:34.460Z,2.55
2023-10-28T02:21:47.073Z,2.75
2023-10-28T02:22:12.950Z,3.97
2023-10-28T02:22:25.198Z,3.38
2023-10-28T02:22:36.646Z,2.50
2023-10-28T02:22:48.192Z,2.72
2023-10-28T02:23:00.158Z,2.20
2023-10-28T02:23:12.491Z,2.45
2023-10-28T02:23:27.655Z,2.50
2023-10-28T02:23:39.438Z,3.13
2023-10-28T02:23:50.891Z,3.10
2023-10-28T02:24:02.442Z,3.30
2023-10-28T02:24:13.950Z,2.40
2023-10-28T02:24:28.639Z,3.30
2023-10-28T02:24:40.205Z,3.72
2023-10-28T02:24:51.677Z,3.22
2023-10-28T02:25:03.445Z,2.78
2023-10-28T02:25:14.856Z,4.00
2023-10-28T02:25:26.254Z,4.30
2023-10-28T02:25:37.728Z,4.55
2023-10-28T02:25:49.136Z,4.38
2023-10-28T02:26:00.521Z,4.55
2023-10-28T02:26:12.016Z,2.75
2023-10-28T02:26:23.499Z,2.60
2023-10-28T02:26:35.111Z,3.92
2023-10-28T02:26:46.748Z,4.07
2023-10-28T02:26:58.231Z,2.63
2023-10-28T02:27:10.929Z,3.72
2023-10-28T02:27:22.333Z,4.72
2023-10-28T02:27:34.529Z,4.95
2023-10-28T02:27:46.035Z,3.97
2023-10-28T02:27:57.514Z,4.68
2023-10-28T02:28:12.120Z,5.18
2023-10-28T02:28:23.575Z,7.15
2023-10-28T02:28:35.064Z,6.47
2023-10-28T02:28:46.583Z,4.60
2023-10-28T02:28:58.368Z,2.88
2023-10-28T02:29:10.007Z,3.25
2023-10-28T02:29:21.428Z,4.15
2023-10-28T02:29:32.860Z,4.40
2023-10-28T02:29:44.342Z,4.90
2023-10-28T02:29:55.901Z,4.72
2023-10-28T02:30:10.490Z,4.53
2023-10-28T02:30:22.046Z,3.83
2023-10-28T02:30:38.396Z,3.83
2023-10-28T02:30:49.798Z,2.70
2023-10-28T02:31:01.499Z,3.55
2023-10-28T02:31:12.925Z,3.67
2023-10-28T02:31:24.303Z,4.78
2023-10-28T02:31:35.829Z,4.82
2023-10-28T02:31:47.966Z,4.35
2023-10-28T02:31:59.580Z,3.67
2023-10-28T02:32:11.162Z,3.33
2023-10-28T02:32:22.793Z,2.97
2023-10-28T02:32:34.880Z,3.38
2023-10-28T02:32:46.853Z,4.35
2023-10-28T02:32:58.675Z,3.20
2023-10-28T02:33:12.895Z,3.22
2023-10-28T02:33:24.455Z,3.58
2023-10-28T02:33:36.003Z,5.45
2023-10-28T02:33:47.530Z,4.30
2023-10-28T02:33:59.389Z,3.85
2023-10-28T02:34:10.828Z,3.38
2023-10-28T02:34:22.271Z,6.28
2023-10-28T02:34:33.927Z,6.90
2023-10-28T02:34:45.298Z,6.68
2023-10-28T02:34:56.922Z,3.10
2023-10-28T02:35:08.838Z,3.30
2023-10-28T02:35:20.501Z,3.17
2023-10-28T02:35:32.006Z,3.28
2023-10-28T02:35:43.507Z,3.10
2023-10-28T02:35:55.022Z,2.72
2023-10-28T02:36:07.539Z,2.10
2023-10-28T02:36:18.967Z,2.75
2023-10-28T02:36:30.354Z,2.83
2023-10-28T02:36:41.831Z,3.75
2023-10-28T02:36:53.295Z,2.90
2023-10-28T02:37:05.276Z,3.13
2023-10-28T02:37:16.795Z,3.42
2023-10-28T02:37:31.440Z,3.95
2023-10-28T02:37:42.910Z,4.22
2023-10-28T02:37:54.346Z,4.22
2023-10-28T02:38:05.864Z,3.85
2023-10-28T02:38:17.289Z,3.03
2023-10-28T02:38:28.703Z,3.10
2023-10-28T02:38:40.442Z,3.70
2023-10-28T02:38:52.069Z,5.43